Time;durP1;ratioP1;P1;durP2;ratioP2;P2;SDS_P1;SDS_P2;PMS_P1;PMS_P2;Temp;Humidity;BMP_temperature;BMP_pressure;BME280_temperature;BME280_humidity;BME280_pressure;Samples;Min_cycle;Max_cycle;Signal;HPM_P1;HPM_P2
2022/04/26 03:38:20;;;;;;;;;32.25;29.75;;;;;11.12;56.79;101251.19;5007256;28;45420;-81
2022/04/26 03:41:01;;;;;;;;;33.25;30.75;;;;;11.16;56.72;101268.78;4994314;28;46454;-80
2022/04/26 03:43:31;;;;;;;;;31.75;29.50;;;;;11.31;56.77;101287.25;5012293;28;47902;-81
2022/04/26 03:46:02;;;;;;;;;30.50;27.25;;;;;11.22;56.87;101280.19;5019562;28;45479;-81
2022/04/26 03:48:43;;;;;;;;;32.50;30.25;;;;;11.22;57.03;101279.31;5000083;28;45582;-80
2022/04/26 03:51:11;;;;;;;;;36.75;30.25;;;;;11.19;56.82;101277.56;4989990;28;45505;-80
2022/04/26 03:53:41;;;;;;;;;31.25;28.00;;;;;11.22;56.78;101285.47;5013713;28;47547;-80
2022/04/26 03:56:09;;;;;;;;;37.50;33.50;;;;;11.22;56.80;101287.22;4988844;28;45462;-81
2022/04/26 03:58:42;;;;;;;;;34.00;29.75;;;;;11.12;56.79;101261.72;4998389;28;45305;-81
2022/04/26 04:01:15;;;;;;;;;28.25;27.25;;;;;11.10;57.15;101264.38;4994978;28;45908;-81
2022/04/26 04:06:52;;;;;;;;;;;;;;;;;;;;;
2022/04/26 04:09:26;;;;;;;;;40.50;33.25;;;;;10.97;57.26;101268.72;4985498;28;69179;-81
2022/04/26 04:11:57;;;;;;;;;36.50;33.75;;;;;11.16;57.22;101303.03;4990094;28;45187;-81
2022/04/26 04:14:36;;;;;;;;;31.50;28.75;;;;;10.99;57.24;101287.19;4993037;28;45458;-81
2022/04/26 04:17:11;;;;;;;;;37.00;31.25;;;;;10.91;57.29;101278.38;4998785;28;45260;-81
2022/04/26 04:19:41;;;;;;;;;34.50;31.00;;;;;10.85;57.34;101273.94;4983989;28;45325;-81
2022/04/26 04:22:08;;;;;;;;;37.25;33.00;;;;;10.87;57.34;101282.72;4994342;28;45585;-81
2022/04/26 04:24:39;;;;;;;;;39.25;34.00;;;;;10.83;57.57;101280.97;4988310;28;46947;-81
2022/04/26 04:27:09;;;;;;;;;36.00;32.25;;;;;10.94;57.41;101294.19;4989093;28;45536;-81
2022/04/26 04:29:52;;;;;;;;;;;;;;;;;;;;;
2022/04/26 04:32:32;;;;;;;;;34.25;30.25;;;;;10.90;57.72;101295.91;4994978;28;71912;-81
2022/04/26 04:35:16;;;;;;;;;37.00;33.50;;;;;10.98;57.56;101323.16;4994810;28;45618;-81
2022/04/26 04:37:59;;;;;;;;;38.25;32.50;;;;;10.79;57.66;101290.59;4992186;28;45534;-81
2022/04/26 04:40:47;;;;;;;;;32.75;27.50;;;;;10.87;57.88;101301.16;4994927;28;45603;-81
2022/04/26 04:43:16;;;;;;;;;41.25;34.75;;;;;10.84;57.77;101308.19;4988919;28;45866;-81
2022/04/26 04:45:47;;;;;;;;;31.25;28.50;;;;;10.89;57.98;101304.69;4990108;28;47251;-81
2022/04/26 04:48:28;;;;;;;;;41.50;36.50;;;;;10.82;57.69;101302.91;5014338;28;45893;-81
2022/04/26 04:50:58;;;;;;;;;46.50;37.75;;;;;10.84;57.80;101314.31;4991657;28;45199;-81
2022/04/26 04:53:32;;;;;;;;;43.00;36.25;;;;;10.82;57.75;101319.59;4994457;28;45684;-81
2022/04/26 04:56:14;;;;;;;;;35.75;32.25;;;;;10.85;57.91;101317.84;4993936;28;45411;-81
2022/04/26 04:58:53;;;;;;;;;38.00;34.25;;;;;10.74;58.16;101310.75;4981126;28;45412;-81
2022/04/26 05:01:33;;;;;;;;;42.00;34.25;;;;;10.99;58.03;101359.19;4995671;28;45376;-81
2022/04/26 05:04:21;;;;;;;;;37.25;33.25;;;;;10.95;58.09;101362.66;4992376;28;45624;-81
2022/04/26 05:06:51;;;;;;;;;43.00;35.00;;;;;10.77;58.00;101321.34;4990119;28;45302;-81
2022/04/26 05:09:21;;;;;;;;;34.75;34.00;;;;;10.89;58.01;101348.59;4988822;28;45337;-81
2022/04/26 05:11:57;;;;;;;;;41.50;32.50;;;;;10.82;57.94;101343.31;4993155;28;45309;-81
2022/04/26 05:14:22;;;;;;;;;42.50;36.25;;;;;10.76;57.99;101332.72;4997880;28;45400;-81
2022/04/26 05:16:55;;;;;;;;;40.00;34.00;;;;;10.86;58.15;101348.59;4990366;28;46967;-81
2022/04/26 05:19:34;;;;;;;;;42.00;34.25;;;;;10.85;58.05;101350.31;4999227;28;45429;-81
2022/04/26 05:22:02;;;;;;;;;37.25;31.25;;;;;10.79;58.59;101345.03;5017021;28;45471;-81
2022/04/26 05:25:06;;;;;;;;;38.50;34.50;;;;;11.01;58.34;101381.16;4989693;28;45243;-81
2022/04/26 05:27:41;;;;;;;;;38.50;34.25;;;;;11.11;58.32;101387.31;4988359;28;45360;-81
2022/04/26 05:30:15;;;;;;;;;43.00;36.25;;;;;10.97;58.19;101362.69;4987332;28;45334;-81
2022/04/26 05:32:46;;;;;;;;;40.75;33.50;;;;;10.97;58.14;101350.38;4993666;28;45391;-81
2022/04/26 05:35:16;;;;;;;;;39.75;35.00;;;;;11.00;58.15;101355.66;4997143;28;46120;-81
2022/04/26 05:37:49;;;;;;;;;42.75;36.00;;;;;11.23;58.24;101397.06;4992150;28;46362;-81
2022/04/26 05:40:35;;;;;;;;;47.75;36.25;;;;;11.36;58.14;101408.50;4993704;28;45309;-81
2022/04/26 05:43:14;;;;;;;;;;;;;;;;;;;;;
2022/04/26 05:45:50;;;;;;;;;44.25;36.50;;;;;11.37;57.92;101391.84;4991869;28;72674;-81
2022/04/26 05:48:21;;;;;;;;;39.00;34.75;;;;;11.42;57.85;101390.09;4998468;28;45454;-81
2022/04/26 05:50:50;;;;;;;;;44.75;37.00;;;;;11.44;57.81;101385.69;4991244;28;45544;-81
2022/04/26 05:53:18;;;;;;;;;38.75;34.25;;;;;11.67;57.79;101414.78;4995066;28;45264;-81
2022/04/26 05:55:53;;;;;;;;;40.75;36.75;;;;;11.65;57.69;101408.59;5006603;28;45440;-82
2022/04/26 06:05:57;;;;;;;;;;;;;;;;;;;;;
2022/04/26 06:09:03;;;;;;;;;46.00;36.00;;;;;11.75;57.57;101413.03;4800683;29;72901;-81
2022/04/26 06:15:33;;;;;;;;;46.25;38.50;;;;;11.75;57.50;101405.13;4780429;29;45296;-80
2022/04/26 06:18:24;;;;;;;;;44.75;37.00;;;;;11.59;57.45;101374.31;4764572;29;45463;-80
2022/04/26 06:21:40;;;;;;;;;;;;;;;;;;;;;
2022/04/26 06:24:37;;;;;;;;;;;;;;;;;;;;;
2022/04/26 06:39:16;;;;;;;;;48.50;39.50;;;;;12.07;57.30;101418.38;4976972;28;45690;-80
2022/04/26 06:42:20;;;;;;;;;53.75;40.00;;;;;12.26;57.05;101447.44;4962754;28;45577;-81
2022/04/26 06:45:37;;;;;;;;;44.50;37.50;;;;;12.26;56.78;101448.31;4976668;28;45536;-82
2022/04/26 06:49:14;;;;;;;;;46.25;36.25;;;;;12.05;56.90;101413.97;4964672;28;48001;-89
2022/04/26 06:51:35;;;;;;;;;50.25;39.50;;;;;12.26;57.18;101458.88;4962808;28;45558;-86
2022/04/26 06:54:10;;;;;;;;;53.25;42.00;;;;;12.20;56.79;101445.69;4977317;28;45361;-88
2022/04/26 06:56:49;;;;;;;;;48.50;41.50;;;;;12.08;56.50;101408.72;4982928;28;45697;-85
2022/04/26 06:59:24;;;;;;;;;50.50;39.50;;;;;12.23;56.68;101426.31;4964302;28;47891;-88
2022/04/26 07:02:06;;;;;;;;;53.25;42.00;;;;;12.20;56.79;101410.50;4950468;28;45578;-86
2022/04/26 07:04:39;;;;;;;;;52.00;42.75;;;;;12.55;56.70;101450.97;4981898;28;45408;-86
2022/04/26 07:07:23;;;;;;;;;52.25;43.50;;;;;12.45;56.45;101422.78;4981696;28;45470;-87
2022/04/26 07:13:20;;;;;;;;;;;;;;;;;;;;;
2022/04/26 07:15:46;;;;;;;;;56.50;44.00;;;;;12.70;56.56;101425.44;4976540;28;68944;-88
2022/04/26 07:18:45;;;;;;;;;;;;;;;;;;;;;
2022/04/26 07:21:49;;;;;;;;;;;;;;;;;;;;;
2022/04/26 07:24:26;;;;;;;;;62.00;48.75;;;;;13.15;56.15;101444.69;4980080;28;71660;-90
2022/04/26 07:27:26;;;;;;;;;;;;;;;;;;;;;
2022/04/26 07:30:30;;;;;;;;;;;;;;;;;;;;;
2022/04/26 07:36:34;;;;;;;;;59.50;48.50;;;;;13.43;55.69;101469.31;4981739;28;45473;-86
2022/04/26 07:39:19;;;;;;;;;63.25;49.00;;;;;13.52;55.81;101474.56;4976627;28;45321;-86
2022/04/26 07:41:54;;;;;;;;;66.50;50.75;;;;;13.42;55.45;101444.66;4961827;28;45672;-83
2022/04/26 07:44:40;;;;;;;;;62.00;48.00;;;;;13.57;55.57;101470.13;4979952;28;46234;-82
2022/04/26 07:47:31;;;;;;;;;61.50;47.75;;;;;13.69;55.57;101487.75;4964858;28;46060;-82
2022/04/26 07:50:20;;;;;;;;;60.25;48.50;;;;;13.61;55.27;101455.16;4963610;28;45199;-88
2022/04/26 07:52:53;;;;;;;;;61.00;48.25;;;;;13.74;54.98;101485.94;4954819;28;45445;-81
2022/04/26 07:58:52;;;;;;;;;55.75;45.00;;;;;13.79;54.92;101505.34;4940983;28;45720;-83
2022/04/26 08:01:36;;;;;;;;;;;;;;;;;;;;;
2022/04/26 08:04:10;;;;;;;;;59.50;47.50;;;;;13.71;54.67;101499.16;4981522;28;71716;-83
2022/04/26 08:07:21;;;;;;;;;58.25;44.25;;;;;13.60;54.76;101479.81;4984317;28;46244;-82
2022/04/26 08:09:55;;;;;;;;;55.50;43.50;;;;;13.60;54.79;101493.94;4983620;28;45472;-83
2022/04/26 08:12:37;;;;;;;;;58.00;45.75;;;;;13.76;54.80;101515.91;4966234;28;45548;-83
2022/04/26 08:15:12;;;;;;;;;59.75;46.50;;;;;13.60;54.93;101490.41;4978925;28;45373;-83
2022/04/26 08:17:56;;;;;;;;;;;;;;;;;;;;;
2022/04/26 08:20:47;;;;;;;;;;;;;;;;;;;;;
2022/04/26 08:29:31;;;;;;;;;57.00;45.75;;;;;14.11;53.90;101502.53;4982954;28;45745;-83
2022/04/26 08:32:02;;;;;;;;;56.75;47.00;;;;;14.13;53.54;101500.72;4965453;28;45329;-83
2022/04/26 08:34:42;;;;;;;;;59.00;45.25;;;;;14.27;53.75;101519.19;4982918;28;45224;-83
2022/04/26 08:37:13;;;;;;;;;54.25;43.25;;;;;14.26;53.50;101511.25;4965378;28;45589;-83
2022/04/26 08:39:52;;;;;;;;;54.25;42.25;;;;;14.48;53.53;101536.69;4964850;28;47243;-83
2022/04/26 08:43:02;;;;;;;;;;;;;;;;;;;;;
2022/04/26 08:45:35;;;;;;;;;51.75;40.00;;;;;14.67;52.27;101512.72;4982180;28;68121;-83
2022/04/26 08:51:35;;;;;;;;;52.00;41.50;;;;;14.93;51.53;101517.81;4974181;28;45712;-83
2022/04/26 08:54:12;;;;;;;;;51.50;40.25;;;;;15.04;51.09;101512.41;4971728;28;45168;-83
2022/04/26 08:56:42;;;;;;;;;50.50;41.00;;;;;15.26;50.41;101539.59;4982285;28;45362;-83
2022/04/26 08:59:31;;;;;;;;;;;;;;;;;;;;;
2022/04/26 09:02:58;;;;;;;;;;;;;;;;;;;;;
2022/04/26 09:05:58;;;;;;;;;56.00;44.50;;;;;15.57;49.55;101556.06;4971691;28;72783;-82
2022/04/26 09:08:48;;;;;;;;;;;;;;;;;;;;;
2022/04/26 09:11:58;;;;;;;;;50.50;38.00;;;;;15.33;48.97;101528.03;4981276;28;71520;-83
2022/04/26 09:14:54;;;;;;;;;50.25;41.75;;;;;15.47;48.75;101560.59;4964127;28;46561;-83
2022/04/26 09:17:32;;;;;;;;;56.50;44.75;;;;;15.37;48.76;101553.59;4959640;28;45286;-83
2022/04/26 09:20:04;;;;;;;;;56.25;45.25;;;;;15.51;49.34;101578.25;4964425;28;45597;-83
2022/04/26 09:22:33;;;;;;;;;53.50;44.25;;;;;15.51;48.83;101586.22;4964622;28;45703;-83
2022/04/26 09:25:23;;;;;;;;;;;;;;;;;;;;;
2022/04/26 09:28:27;;;;;;;;;;;;;;;;;;;;;
2022/04/26 09:31:16;;;;;;;;;50.25;40.50;;;;;15.20;49.67;101585.63;4965057;28;68891;-83
2022/04/26 09:33:59;;;;;;;;;;;;;;;;;;;;;
2022/04/26 09:37:18;;;;;;;;;;;;;;;;;;;;;
2022/04/26 09:40:08;;;;;;;;;57.25;45.00;;;;;14.92;49.47;101577.03;4981453;28;72177;-83
2022/04/26 09:42:40;;;;;;;;;51.00;41.00;;;;;14.84;49.71;101577.09;4971617;28;45248;-83
2022/04/26 09:45:16;;;;;;;;;48.75;39.00;;;;;14.74;49.93;101567.47;4982078;28;45455;-83
2022/04/26 09:47:59;;;;;;;;;;;;;;;;;;;;;
2022/04/26 09:50:36;;;;;;;;;;;;;;;;;;;;;
2022/04/26 09:53:25;;;;;;;;;;;;;;;;;;;;;
2022/04/26 09:56:02;;;;;;;;;54.75;43.25;;;;;14.74;50.20;101607.22;4980788;28;72709;-83
2022/04/26 09:58:34;;;;;;;;;53.25;42.25;;;;;14.66;50.68;101587.84;4963675;28;46979;-83
2022/04/26 10:01:09;;;;;;;;;50.00;40.75;;;;;14.69;50.14;101601.94;4964508;28;45291;-83
2022/04/26 10:03:58;;;;;;;;;53.75;42.50;;;;;14.62;50.09;101594.94;4982985;28;45282;-83
2022/04/26 10:06:51;;;;;;;;;52.50;41.25;;;;;14.62;49.79;101618.78;4982006;28;45517;-84
2022/04/26 10:09:18;;;;;;;;;54.50;45.50;;;;;14.62;50.18;101620.53;4963873;28;47895;-81
2022/04/26 10:12:02;;;;;;;;;54.25;42.25;;;;;14.42;50.00;101584.41;4963164;28;45528;-82
2022/04/26 10:14:39;;;;;;;;;54.75;44.75;;;;;14.35;50.34;101574.75;4981692;28;45537;-81
2022/04/26 10:17:30;;;;;;;;;;;;;;;;;;;;;
2022/04/26 10:20:02;;;;;;;;;49.50;41.75;;;;;14.70;50.45;101616.97;4975105;28;75417;-83
2022/04/26 10:23:08;;;;;;;;;;;;;;;;;;;;;
2022/04/26 10:26:39;;;;;;;;;;;;;;;;;;;;;
2022/04/26 10:35:16;;;;;;;;;54.00;44.00;;;;;15.13;49.55;101581.25;4931268;28;45588;-83
2022/04/26 10:37:47;;;;;;;;;49.75;41.25;;;;;15.43;48.35;101588.06;4933024;28;45502;-83
2022/04/26 10:40:17;;;;;;;;;49.50;39.00;;;;;15.63;47.87;101590.50;4961297;28;45662;-83
2022/04/26 10:43:06;;;;;;;;;52.75;43.00;;;;;15.91;47.75;101609.69;4944549;28;47087;-83
2022/04/26 10:51:55;;;;;;;;;;;;;;;;;;;;;
2022/04/26 10:54:55;;;;;;;;;;;;;;;;;;;;;
2022/04/26 10:57:36;;;;;;;;;55.25;42.75;;;;;16.52;46.37;101614.19;4949658;28;71232;-83
2022/04/26 11:00:33;;;;;;;;;;;;;;;;;;;;;
2022/04/26 11:03:29;;;;;;;;;;;;;;;;;;;;;
2022/04/26 11:06:05;;;;;;;;;49.25;39.25;;;;;16.66;46.37;101615.78;4960255;28;75237;-83
2022/04/26 11:08:48;;;;;;;;;46.25;38.75;;;;;16.46;45.86;101585.03;4961453;28;45251;-83
2022/04/26 11:11:30;;;;;;;;;49.75;38.50;;;;;16.60;46.00;101615.84;4925764;28;45541;-83
2022/04/26 11:14:38;;;;;;;;;54.00;42.00;;;;;16.53;46.48;101597.34;4961088;28;45436;-83
2022/04/26 11:17:13;;;;;;;;;42.75;36.75;;;;;16.49;45.92;101590.31;4942968;28;47025;-83
2022/04/26 11:20:05;;;;;;;;;51.75;38.75;;;;;16.41;45.88;101586.91;4943587;28;45388;-83
2022/04/26 11:22:57;;;;;;;;;;;;;;;;;;;;;
2022/04/26 11:28:30;;;;;;;;;45.50;38.25;;;;;16.48;46.26;101599.19;4960366;28;45765;-83
2022/04/26 11:31:06;;;;;;;;;45.75;38.50;;;;;16.78;46.02;101606.75;4948430;28;45407;-83
2022/04/26 11:33:34;;;;;;;;;49.25;40.50;;;;;16.92;45.91;101596.75;4958857;28;45445;-83
2022/04/26 11:36:12;;;;;;;;;;;;;;;;;;;;;
2022/04/26 11:38:52;;;;;;;;;;;;;;;;;;;;;
2022/04/26 11:44:40;;;;;;;;;;;;;;;;;;;;;
2022/04/26 11:47:23;;;;;;;;;;;;;;;;;;;;;
2022/04/26 11:50:16;;;;;;;;;42.00;36.50;;;;;17.41;44.29;101603.91;4955030;28;75157;-82
2022/04/26 11:53:14;;;;;;;;;45.75;38.25;;;;;17.72;44.07;101616.63;4950910;28;45268;-82
2022/04/26 11:55:55;;;;;;;;;42.50;35.25;;;;;17.62;43.81;101581.34;4960535;28;45562;-82
2022/04/26 11:58:58;;;;;;;;;;;;;;;;;;;;;
2022/04/26 12:01:40;;;;;;;;;;;;;;;;;;;;;
2022/04/26 12:04:34;;;;;;;;;40.75;35.00;;;;;17.91;43.35;101603.88;4959224;28;72363;-84
2022/04/26 12:07:19;;;;;;;;;42.75;34.50;;;;;18.02;43.37;101593.88;4928372;28;45444;-82
2022/04/26 12:09:56;;;;;;;;;40.50;33.75;;;;;18.25;42.91;101610.25;4942229;28;46307;-82
2022/04/26 12:12:47;;;;;;;;;43.25;35.75;;;;;18.17;43.19;101600.66;4959800;28;45666;-82
2022/04/26 12:15:42;;;;;;;;;38.25;33.00;;;;;18.22;42.38;101601.44;4938680;28;45367;-82
2022/04/26 12:18:33;;;;;;;;;;;;;;;;;;;;;
2022/04/26 12:21:26;;;;;;;;;;;;;;;;;;;;;
2022/04/26 12:24:20;;;;;;;;;41.50;32.50;;;;;18.18;42.72;101629.09;4958378;28;73187;-82
2022/04/26 12:27:32;;;;;;;;;39.75;33.25;;;;;18.22;42.45;101612.09;4959625;28;45343;-82
2022/04/26 12:33:36;;;;;;;;;;;;;;;;;;;;;
2022/04/26 12:39:23;;;;;;;;;35.75;33.00;;;;;19.15;41.53;101609.94;4959394;28;45286;-82
2022/04/26 12:42:03;;;;;;;;;;;;;;;;;;;;;
2022/04/26 12:45:05;;;;;;;;;36.75;30.00;;;;;19.61;39.79;101603.38;4960043;28;72577;-82
2022/04/26 12:50:31;;;;;;;;;34.00;31.25;;;;;19.88;39.03;101570.63;4962039;28;45281;-82
2022/04/26 12:53:42;;;;;;;;;;;;;;;;;;;;;
2022/04/26 12:56:27;;;;;;;;;28.25;27.00;;;;;20.25;38.35;101597.13;4961598;28;72506;-82
2022/04/26 12:59:23;;;;;;;;;;;;;;;;;;;;;
2022/04/26 13:02:00;;;;;;;;;29.00;25.75;;;;;20.81;37.64;101573.09;4969826;28;72852;-83
2022/04/26 13:04:36;;;;;;;;;26.50;24.00;;;;;21.13;38.01;101582.72;4974700;28;45270;-82
2022/04/26 13:07:18;;;;;;;;;27.75;26.00;;;;;21.42;37.50;101563.91;4969325;28;45261;-82
2022/04/26 13:09:57;;;;;;;;;27.50;25.00;;;;;21.82;36.10;101570.50;4966240;28;46058;-82
2022/04/26 13:12:26;;;;;;;;;21.25;20.00;;;;;21.72;35.54;101544.03;4950354;28;45631;-82
2022/04/26 13:15:30;;;;;;;;;21.75;21.50;;;;;21.78;35.47;101554.53;4964928;28;45385;-83
2022/04/26 13:18:10;;;;;;;;;;;;;;;;;;;;;
2022/04/26 13:21:26;;;;;;;;;;;;;;;;;;;;;
2022/04/26 13:24:10;;;;;;;;;;;;;;;;;;;;;
2022/04/26 13:27:23;;;;;;;;;;;;;;;;;;;;;
2022/04/26 13:30:18;;;;;;;;;24.00;20.75;;;;;21.70;34.40;101570.00;4950605;28;45625;-82
2022/04/26 13:33:12;;;;;;;;;24.75;23.75;;;;;21.67;33.86;101546.00;4951455;28;46191;-82
2022/04/26 13:36:09;;;;;;;;;21.75;21.75;;;;;21.90;34.20;101557.69;4935505;28;45314;-83
2022/04/26 13:42:19;;;;;;;;;;;;;;;;;;;;;
2022/04/26 13:45:16;;;;;;;;;;;;;;;;;;;;;
2022/04/26 13:48:29;;;;;;;;;19.00;18.50;;;;;22.16;33.80;101533.41;4950986;28;71382;-82
2022/04/26 13:51:21;;;;;;;;;21.25;21.25;;;;;22.15;33.44;101550.41;4867442;29;45414;-82
2022/04/26 13:57:35;;;;;;;;;;;;;;;;;;;;;
2022/04/26 14:00:50;;;;;;;;;;;;;;;;;;;;;
2022/04/26 14:03:37;;;;;;;;;;;;;;;;;;;;;
2022/04/26 14:09:41;;;;;;;;;;;;;;;;;;;;;
2022/04/26 14:12:49;;;;;;;;;;;;;;;;;;;;;
2022/04/26 14:21:59;;;;;;;;;24.25;23.25;;;;;21.89;33.28;101537.13;4951775;28;45283;-82
2022/04/26 14:24:43;;;;;;;;;18.75;18.75;;;;;21.62;33.88;101529.22;4956688;28;45539;-82
2022/04/26 14:27:36;;;;;;;;;;;;;;;;;;;;;
2022/04/26 14:30:41;;;;;;;;;;;;;;;;;;;;;
2022/04/26 14:33:33;;;;;;;;;18.50;18.50;;;;;20.69;34.25;101507.47;4952547;28;74190;-82
2022/04/26 14:36:11;;;;;;;;;;;;;;;;;;;;;
2022/04/26 14:38:56;;;;;;;;;;;;;;;;;;;;;
2022/04/26 14:41:21;;;;;;;;;20.25;19.25;;;;;20.28;34.79;101508.78;4960667;28;71467;-83
2022/04/26 14:44:15;;;;;;;;;21.50;19.00;;;;;20.39;34.90;101520.00;4957827;28;47036;-83
2022/04/26 14:46:58;;;;;;;;;;;;;;;;;;;;;
2022/04/26 14:49:42;;;;;;;;;;;;;;;;;;;;;
2022/04/26 14:52:26;;;;;;;;;17.50;17.00;;;;;20.71;35.26;101531.50;4960326;28;71814;-83
2022/04/26 14:55:11;;;;;;;;;;;;;;;;;;;;;
2022/04/26 14:58:09;;;;;;;;;;;;;;;;;;;;;
2022/04/26 15:01:03;;;;;;;;;;;;;;;;;;;;;
2022/04/26 15:03:44;;;;;;;;;;;;;;;;;;;;;
2022/04/26 15:06:25;;;;;;;;;17.25;15.50;;;;;22.37;33.38;101510.25;4959700;28;74405;-81
2022/04/26 15:09:53;;;;;;;;;;;;;;;;;;;;;
2022/04/26 15:18:40;;;;;;;;;;;;;;;;;;;;;
2022/04/26 15:21:34;;;;;;;;;13.25;13.25;;;;;32.19;25.92;101495.09;4959553;28;71344;-82
2022/04/26 15:24:28;;;;;;;;;;;;;;;;;;;;;
2022/04/26 15:27:15;;;;;;;;;;;;;;;;;;;;;
2022/04/26 15:30:42;;;;;;;;;8.25;6.00;;;;;27.75;25.17;101517.50;4960315;28;74182;-83
2022/04/26 15:33:48;;;;;;;;;;;;;;;;;;;;;
2022/04/26 15:36:37;;;;;;;;;11.50;11.50;;;;;25.04;26.96;101495.22;4968580;28;68788;-82
2022/04/26 15:39:25;;;;;;;;;12.00;11.00;;;;;24.48;27.69;101525.91;4930779;28;45445;-81
2022/04/26 15:41:56;;;;;;;;;11.50;11.25;;;;;23.84;27.58;101527.16;4943874;28;47178;-80
2022/04/26 15:44:29;;;;;;;;;15.25;13.25;;;;;23.26;28.41;101511.84;4939427;28;45812;-79
2022/04/26 15:47:08;;;;;;;;;12.25;12.25;;;;;22.87;28.96;101511.75;4938468;28;45464;-81
2022/04/26 15:49:45;;;;;;;;;10.75;7.50;;;;;22.54;29.44;101500.63;4942375;28;45670;-80
2022/04/26 15:52:15;;;;;;;;;15.00;13.00;;;;;22.50;29.06;101490.94;4942339;28;47098;-80
2022/04/26 15:54:43;;;;;;;;;14.50;13.50;;;;;23.83;29.84;101495.84;4956349;28;45351;-80
2022/04/26 15:57:14;;;;;;;;;10.25;10.25;;;;;25.54;27.47;101509.69;4949806;28;44891;-82
2022/04/26 16:00:00;;;;;;;;;18.50;14.25;;;;;25.83;27.31;101504.53;4965269;28;45603;-83
2022/04/26 16:02:31;;;;;;;;;10.75;10.75;;;;;25.28;27.58;101495.78;4979479;28;45301;-81
2022/04/26 16:05:06;;;;;;;;;13.75;12.50;;;;;24.95;27.21;101522.66;4961352;28;44909;-81
2022/04/26 16:07:46;;;;;;;;;;;;;;;;;;;;;
2022/04/26 16:22:44;;;;;;;;;11.25;10.50;;;;;22.73;29.45;101498.91;4951505;28;45366;-83
2022/04/26 16:25:19;;;;;;;;;12.00;11.75;;;;;22.65;29.24;101514.47;4964447;28;45438;-81
2022/04/26 16:31:57;;;;;;;;;;;;;;;;;;;;;
2022/04/26 16:41:56;;;;;;;;;;;;;;;;;;;;;
2022/04/26 16:45:33;;;;;;;;;;;;;;;;;;;;;
2022/04/26 16:55:13;;;;;;;;;;;;;;;;;;;;;
2022/04/26 16:57:59;;;;;;;;;13.75;12.25;;;;;22.36;29.76;101538.00;4954781;28;67933;-83
2022/04/26 17:00:49;;;;;;;;;16.00;16.00;;;;;22.19;30.24;101543.19;4942983;28;45597;-83
2022/04/26 17:03:20;;;;;;;;;13.25;12.00;;;;;21.94;30.71;101541.38;4943252;28;46827;-84
2022/04/26 17:05:50;;;;;;;;;14.25;14.00;;;;;21.67;30.48;101537.94;4943251;28;45425;-84
2022/04/26 17:08:25;;;;;;;;;15.00;15.00;;;;;21.40;30.90;101533.63;4961975;28;46313;-83
2022/04/26 17:10:51;;;;;;;;;16.00;13.75;;;;;21.26;31.48;101550.16;4961655;28;45365;-83
2022/04/26 17:13:21;;;;;;;;;17.00;15.75;;;;;20.91;31.85;101531.72;4961433;28;47011;-84
2022/04/26 17:15:49;;;;;;;;;13.50;13.50;;;;;20.64;31.75;101514.78;4944355;28;45439;-86
2022/04/26 17:18:19;;;;;;;;;17.50;14.50;;;;;20.55;32.35;101531.13;4961241;28;45336;-83
2022/04/26 17:20:52;;;;;;;;;17.50;16.00;;;;;20.42;32.43;101530.63;4958257;28;45446;-82
2022/04/26 17:23:20;;;;;;;;;15.75;14.25;;;;;20.41;32.49;101549.38;4961504;28;45413;-84
2022/04/26 17:26:18;;;;;;;;;13.50;13.50;;;;;20.31;32.91;101551.47;4939386;28;45500;-83
2022/04/26 17:28:48;;;;;;;;;11.75;11.75;;;;;20.11;32.42;101527.16;4942811;28;45574;-83
2022/04/26 17:31:21;;;;;;;;;14.00;10.75;;;;;19.92;32.49;101526.84;4943632;28;45493;-84
2022/04/26 17:34:06;;;;;;;;;14.50;14.50;;;;;20.14;32.69;101551.13;4945851;28;48175;-83
2022/04/26 17:36:41;;;;;;;;;16.50;16.00;;;;;20.57;33.16;101556.03;4954201;28;45772;-85
2022/04/26 17:39:12;;;;;;;;;13.00;13.00;;;;;20.96;32.37;101536.91;4948216;28;45759;-84
2022/04/26 17:41:58;;;;;;;;;15.75;15.75;;;;;21.10;32.03;101544.47;4954474;28;45572;-84
2022/04/26 17:44:31;;;;;;;;;15.75;13.50;;;;;20.91;32.25;101568.31;4951192;28;46317;-85
2022/04/26 17:47:36;;;;;;;;;;;;;;;;;;;;;
2022/04/26 17:50:10;;;;;;;;;16.50;16.50;;;;;20.14;32.76;101573.38;4962149;28;68275;-87
2022/04/26 17:58:20;;;;;;;;;14.00;13.75;;;;;19.62;33.52;101564.22;4961418;28;45448;-81
2022/04/26 18:00:48;;;;;;;;;14.50;13.75;;;;;19.50;33.17;101556.53;4959926;28;45623;-85
2022/04/26 18:03:21;;;;;;;;;14.00;14.00;;;;;19.56;33.50;101570.56;4960430;28;45605;-83
2022/04/26 18:05:52;;;;;;;;;12.75;11.75;;;;;19.34;33.39;101556.06;4960648;28;45394;-84
2022/04/26 18:08:28;;;;;;;;;14.75;14.75;;;;;19.28;33.76;101574.94;4942912;28;45476;-83
2022/04/26 18:10:55;;;;;;;;;15.00;14.00;;;;;19.04;33.96;101563.97;4947537;28;45504;-84
2022/04/26 18:13:31;;;;;;;;;17.25;14.00;;;;;18.84;33.80;101555.59;4941475;28;45554;-82
2022/04/26 18:16:02;;;;;;;;;16.50;15.00;;;;;18.87;34.61;101587.53;4944753;28;47188;-82
2022/04/26 18:18:30;;;;;;;;;16.00;13.75;;;;;18.55;34.95;101557.16;4942334;28;46250;-84
2022/04/26 18:21:08;;;;;;;;;14.50;14.00;;;;;18.56;34.90;101585.56;4959065;28;45384;-84
2022/04/26 18:23:36;;;;;;;;;17.25;14.25;;;;;18.42;35.09;101590.34;4943142;28;45929;-83
2022/04/26 18:26:21;;;;;;;;;17.75;16.75;;;;;18.17;34.89;101580.22;4941204;28;47085;-85
2022/04/26 18:28:58;;;;;;;;;14.75;14.75;;;;;18.23;35.66;101606.75;4948448;28;45561;-82
2022/04/26 18:31:34;;;;;;;;;14.75;14.50;;;;;17.91;35.51;101571.91;4944404;28;45425;-85
2022/04/26 18:34:13;;;;;;;;;18.25;18.25;;;;;17.96;35.65;101616.22;4959915;28;45286;-84
2022/04/26 18:36:50;;;;;;;;;19.75;17.50;;;;;17.59;36.20;101584.06;4959100;28;45545;-84
2022/04/26 18:42:39;;;;;;;;;;;;;;;;;;;;;
2022/04/26 18:53:10;;;;;;;;;;;;;;;;;;;;;
2022/04/26 19:00:17;;;;;;;;;;;;;;;;;;;;;
2022/04/26 19:06:05;;;;;;;;;18.50;18.25;;;;;16.53;38.20;101602.66;4800492;29;46159;-84
2022/04/26 19:08:45;;;;;;;;;17.25;16.75;;;;;16.59;38.13;101620.28;4820622;29;45624;-85
2022/04/26 19:14:08;;;;;;;;;16.75;16.75;;;;;16.49;38.69;101631.94;4953570;28;45522;-84
2022/04/26 19:16:34;;;;;;;;;22.75;18.50;;;;;16.34;38.60;101619.75;4941037;28;45581;-84
2022/04/26 19:18:59;;;;;;;;;19.00;18.00;;;;;16.27;38.98;101612.78;4958195;28;45835;-84
2022/04/26 19:21:25;;;;;;;;;21.00;19.75;;;;;16.40;38.97;101637.41;4949064;28;45619;-85
2022/04/26 19:24:04;;;;;;;;;20.50;20.50;;;;;16.27;39.10;101628.72;4940432;28;46775;-84
2022/04/26 19:26:35;;;;;;;;;18.75;18.75;;;;;16.33;39.15;101644.56;4959477;28;45780;-82
2022/04/26 19:29:08;;;;;;;;;20.00;19.25;;;;;16.22;39.40;101638.50;4942570;28;45868;-84
2022/04/26 19:31:37;;;;;;;;;23.25;19.25;;;;;16.10;39.31;101629.81;4952682;28;45587;-84
2022/04/26 19:34:03;;;;;;;;;19.00;18.25;;;;;16.23;39.32;101664.22;4958672;28;45537;-84
2022/04/26 19:36:45;;;;;;;;;19.00;17.00;;;;;16.23;39.34;101675.72;4948967;28;45603;-83
2022/04/26 19:39:19;;;;;;;;;14.75;14.25;;;;;16.19;39.50;101676.63;4942858;28;45513;-83
2022/04/26 19:41:50;;;;;;;;;15.50;14.25;;;;;16.05;39.38;101667.94;4958281;28;45607;-82
2022/04/26 19:44:18;;;;;;;;;19.25;18.00;;;;;15.82;39.50;101646.94;4945038;28;47572;-83
2022/04/26 19:46:55;;;;;;;;;13.00;13.00;;;;;15.72;39.33;101632.03;4941677;28;45778;-83
2022/04/26 19:49:26;;;;;;;;;16.00;15.00;;;;;15.91;39.52;101681.38;4958368;28;45988;-84
2022/04/26 19:51:53;;;;;;;;;15.50;13.75;;;;;15.95;39.48;101692.84;4959001;28;45878;-84
2022/04/26 19:54:18;;;;;;;;;14.00;13.00;;;;;15.74;39.70;101667.41;4940996;28;48203;-84
2022/04/26 19:56:50;;;;;;;;;19.75;17.00;;;;;15.82;39.53;101681.47;4949843;28;45776;-83
2022/04/26 19:59:18;;;;;;;;;17.50;15.75;;;;;15.79;39.73;101697.44;4947248;28;45434;-83
2022/04/26 20:01:44;;;;;;;;;15.50;15.50;;;;;15.80;39.91;101704.53;4936516;28;45458;-84
2022/04/26 20:04:12;;;;;;;;;18.25;16.25;;;;;15.76;39.69;101714.28;4942972;28;45912;-83
2022/04/26 20:06:38;;;;;;;;;17.50;15.00;;;;;15.48;39.95;101665.00;4950269;28;45461;-84
2022/04/26 20:09:04;;;;;;;;;14.75;14.50;;;;;15.65;40.07;101694.88;4957880;28;45771;-85
2022/04/26 20:11:31;;;;;;;;;19.00;17.25;;;;;15.56;39.98;101687.91;4948185;28;45600;-85
2022/04/26 20:14:09;;;;;;;;;;;;;;;;;;;;;
2022/04/26 20:16:35;;;;;;;;;17.50;15.00;;;;;15.39;40.51;101668.56;4957289;28;72727;-86
2022/04/26 20:19:02;;;;;;;;;17.50;14.00;;;;;15.46;40.36;101688.88;4943843;28;45835;-84
2022/04/26 20:21:30;;;;;;;;;14.00;14.00;;;;;15.33;40.74;101669.50;4949259;28;45553;-84
2022/04/26 20:23:58;;;;;;;;;17.50;16.75;;;;;15.47;40.91;101706.53;4951277;28;47538;-84